createdAt,value
2022-11-18T00:01:32.883Z,97658.47
2022-11-18T00:03:59.618Z,97658.91
2022-11-18T00:06:27.934Z,97663.16
2022-11-18T00:08:55.242Z,97664.41
2022-11-18T00:11:44.753Z,97656.47
2022-11-18T00:14:20.564Z,97672.84
2022-11-18T00:16:52.047Z,97668.31
2022-11-18T00:19:20.629Z,97674.41
2022-11-18T00:21:47.567Z,97675.94
2022-11-18T00:24:14.059Z,97683.09
2022-11-18T00:26:40.626Z,97682.81
2022-11-18T00:29:09.723Z,97684.97
2022-11-18T00:31:36.727Z,97689.19
2022-11-18T00:34:03.412Z,97696.63
2022-11-18T00:36:30.336Z,97697.72
2022-11-18T00:38:56.927Z,97699.88
2022-11-18T00:41:23.846Z,97703.41
2022-11-18T00:43:50.465Z,97703.72
2022-11-18T00:46:17.001Z,97705.09
2022-11-18T00:48:43.540Z,97707.53
2022-11-18T00:51:19.297Z,97711.84
2022-11-18T00:53:45.773Z,97715.84
2022-11-18T00:56:12.253Z,97721.44
2022-11-18T00:58:38.973Z,97715.19
2022-11-18T01:01:05.969Z,97707.84
2022-11-18T01:03:32.623Z,97713.44
2022-11-18T01:05:59.169Z,97721.66
2022-11-18T01:08:26.065Z,97718.53
2022-11-18T01:10:52.685Z,97728.59
2022-11-18T01:13:22.509Z,97734.19
2022-11-18T01:15:54.423Z,97742.69
2022-11-18T01:18:26.929Z,97739.59
2022-11-18T01:20:53.631Z,97742.22
2022-11-18T01:23:20.504Z,97750.72
2022-11-18T01:25:49.318Z,97757.88
2022-11-18T01:28:23.209Z,97762.38
2022-11-18T01:30:50.873Z,97770.59
2022-11-18T01:33:17.368Z,97767.47
2022-11-18T01:35:43.951Z,97771.47
2022-11-18T01:38:12.042Z,97774.91
2022-11-18T01:40:39.097Z,97772.81
2022-11-18T01:43:14.118Z,97782.34
2022-11-18T01:45:43.746Z,97788.41
2022-11-18T01:48:27.029Z,97797.13
2022-11-18T01:51:16.816Z,97795.34
2022-11-18T01:53:49.651Z,97807.19
2022-11-18T01:56:20.636Z,97802.41
2022-11-18T01:58:57.800Z,97803.50
2022-11-18T02:01:24.376Z,97807.19
2022-11-18T02:03:52.991Z,97809.03
2022-11-18T02:06:19.835Z,97811.41
2022-11-18T02:08:49.114Z,97812.78
2022-11-18T02:11:34.897Z,97817.97
2022-11-18T02:14:04.552Z,97820.31
2022-11-18T02:16:52.146Z,97826.41
2022-11-18T02:19:51.185Z,97820.03
2022-11-18T02:22:23.538Z,97818.16
2022-11-18T02:25:04.273Z,97820.03
2022-11-18T02:27:55.663Z,97822.09
2022-11-18T02:30:22.563Z,97822.09
2022-11-18T02:32:56.407Z,97825.00
2022-11-18T02:35:41.870Z,97836.09
2022-11-18T02:38:32.597Z,97833.66
2022-11-18T02:41:05.758Z,97836.78
2022-11-18T02:43:39.177Z,97846.56
2022-11-18T02:46:11.662Z,97842.56
2022-11-18T02:48:44.865Z,97851.78
2022-11-18T02:51:13.739Z,97852.25
2022-11-18T02:53:42.230Z,97860.69
2022-11-18T02:56:10.306Z,97863.03
2022-11-18T02:58:36.821Z,97864.31
2022-11-18T03:01:03.368Z,97865.59
2022-11-18T03:03:35.103Z,97868.53
2022-11-18T03:06:27.709Z,97870.59
2022-11-18T03:09:09.484Z,97868.44
2022-11-18T03:11:59.923Z,97878.53
2022-11-18T03:14:32.382Z,97880.88
2022-11-18T03:17:02.397Z,97872.38
2022-11-18T03:19:58.422Z,97883.22
2022-11-18T03:22:27.908Z,97877.91
2022-11-18T03:25:04.239Z,97886.38
2022-11-18T03:27:39.920Z,97873.44
2022-11-18T03:30:10.503Z,97912.22
2022-11-18T03:32:43.052Z,97906.94
2022-11-18T03:35:17.949Z,97924.94
2022-11-18T03:37:45.802Z,97914.38
2022-11-18T03:40:18.568Z,97920.16
2022-11-18T03:42:49.317Z,97922.03
2022-11-18T03:45:57.291Z,97932.31
2022-11-18T03:48:29.391Z,97926.72
2022-11-18T03:51:00.810Z,97928.31
2022-11-18T03:53:32.518Z,97941.22
2022-11-18T03:56:12.760Z,97939.34
2022-11-18T03:59:02.585Z,97934.56
2022-11-18T04:01:43.226Z,97940.13
2022-11-18T04:04:10.626Z,97944.84
2022-11-18T04:06:43.329Z,97955.94
2022-11-18T04:09:18.296Z,97960.41
2022-11-18T04:12:05.450Z,97961.22
2022-11-18T04:14:33.685Z,97964.94
2022-11-18T04:17:00.276Z,97974.44
2022-11-18T04:19:26.911Z,97983.44
2022-11-18T04:21:53.460Z,97975.81
2022-11-18T04:24:19.932Z,97981.41
2022-11-18T04:26:46.439Z,97977.94
2022-11-18T04:29:13.016Z,97988.03
2022-11-18T04:31:39.500Z,97994.13
2022-11-18T04:34:06.003Z,97994.91
2022-11-18T04:36:32.582Z,97994.91
2022-11-18T04:38:59.045Z,98003.59
2022-11-18T04:41:45.516Z,98015.28
2022-11-18T04:44:13.420Z,98018.69
2022-11-18T04:46:43.845Z,98023.72
2022-11-18T04:49:13.039Z,98026.34
2022-11-18T04:51:41.078Z,98027.91
2022-11-18T04:54:08.287Z,98029.78
2022-11-18T04:56:35.114Z,98038.50
2022-11-18T04:59:03.231Z,98042.50
2022-11-18T05:01:30.705Z,98053.28
2022-11-18T05:03:57.459Z,98064.66
2022-11-18T05:06:24.104Z,98055.94
2022-11-18T05:08:50.965Z,98067.59
2022-11-18T05:11:35.878Z,98072.09
2022-11-18T05:14:02.535Z,98079.25
2022-11-18T05:16:28.989Z,98082.94
2022-11-18T05:18:55.841Z,98082.16
2022-11-18T05:21:22.390Z,98090.09
2022-11-18T05:23:48.873Z,98101.97
2022-11-18T05:26:15.371Z,98093.25
2022-11-18T05:28:41.899Z,98101.97
2022-11-18T05:31:11.450Z,98104.63
2022-11-18T05:33:38.878Z,98122.06
2022-11-18T05:36:07.619Z,98115.69
2022-11-18T05:38:35.176Z,98119.41
2022-11-18T05:41:02.422Z,98122.06
2022-11-18T05:43:30.047Z,98134.97
2022-11-18T05:45:56.495Z,98131.28
2022-11-18T05:48:23.034Z,98143.44
2022-11-18T05:50:52.134Z,98133.41
2022-11-18T05:53:22.510Z,98151.66
2022-11-18T05:55:57.086Z,98155.56
2022-11-18T05:58:23.768Z,98140.00
2022-11-18T06:00:54.378Z,98149.78
2022-11-18T06:03:31.497Z,98153.50
2022-11-18T06:06:01.856Z,98161.44
2022-11-18T06:08:33.175Z,98163.28
2022-11-18T06:10:59.937Z,98168.31
2022-11-18T06:13:31.916Z,98176.72
2022-11-18T06:15:58.479Z,98179.91
2022-11-18T06:18:28.774Z,98187.31
2022-11-18T06:20:59.765Z,98185.44
2022-11-18T06:23:28.899Z,98187.06
2022-11-18T06:25:55.419Z,98198.13
2022-11-18T06:28:23.299Z,98208.44
2022-11-18T06:30:49.796Z,98210.00
2022-11-18T06:33:16.273Z,98209.69
2022-11-18T06:35:44.794Z,98219.19
2022-11-18T06:38:11.388Z,98223.44
2022-11-18T06:40:38.333Z,98223.16
2022-11-18T06:43:27.823Z,98233.72
2022-11-18T06:46:20.637Z,98243.22
2022-11-18T06:48:47.405Z,98249.31
2022-11-18T06:51:14.250Z,98261.47
2022-11-18T06:53:40.902Z,98262.25
2022-11-18T06:56:09.680Z,98271.00
2022-11-18T06:58:36.648Z,98276.28
2022-11-18T07:01:17.135Z,98290.28
2022-11-18T07:03:45.838Z,98284.69
2022-11-18T07:06:15.426Z,98290.81
2022-11-18T07:08:42.895Z,98296.09
2022-11-18T07:11:12.458Z,98304.25
2022-11-18T07:13:43.574Z,98304.81
2022-11-18T07:16:13.694Z,98309.03
2022-11-18T07:18:44.287Z,98312.47
2022-11-18T07:21:13.421Z,98310.91
2022-11-18T07:23:40.453Z,98320.41
2022-11-18T07:26:07.828Z,98330.72
2022-11-18T07:28:34.736Z,98330.72
2022-11-18T07:31:07.280Z,98329.66
2022-11-18T07:33:35.416Z,98336.81
2022-11-18T07:36:06.513Z,98347.38
2022-11-18T07:38:33.474Z,98349.81
2022-11-18T07:41:20.759Z,98351.44
2022-11-18T07:43:48.069Z,98357.78
2022-11-18T07:46:14.535Z,98367.09
2022-11-18T07:48:42.278Z,98371.06
2022-11-18T07:51:10.382Z,98387.22
2022-11-18T07:53:37.471Z,98388.88
2022-11-18T07:56:05.542Z,98392.84
2022-11-18T07:58:32.227Z,98399.47
2022-11-18T08:00:59.394Z,98403.75
2022-11-18T08:03:29.082Z,98415.16
2022-11-18T08:05:59.974Z,98414.63
2022-11-18T08:08:26.955Z,98419.63
2022-11-18T08:10:58.229Z,98425.19
2022-11-18T08:13:25.719Z,98426.78
2022-11-18T08:15:52.766Z,98440.00
2022-11-18T08:18:19.418Z,98450.81
2022-11-18T08:20:46.431Z,98460.59
2022-11-18T08:23:14.004Z,98465.34
2022-11-18T08:25:41.988Z,98463.72
2022-11-18T08:28:08.757Z,98470.09
2022-11-18T08:30:36.199Z,98469.78
2022-11-18T08:33:03.056Z,98477.44
2022-11-18T08:35:31.796Z,98475.31
2022-11-18T08:37:59.114Z,98479.53
2022-11-18T08:40:26.313Z,98493.28
2022-11-18T08:42:52.846Z,98493.78
2022-11-18T08:45:19.365Z,98499.59
2022-11-18T08:47:45.876Z,98505.38
2022-11-18T08:50:12.777Z,98513.06
2022-11-18T08:52:39.295Z,98510.13
2022-11-18T08:55:05.976Z,98515.94
2022-11-18T08:57:32.479Z,98522.81
2022-11-18T08:59:59.000Z,98513.81
2022-11-18T09:02:25.588Z,98526.47
2022-11-18T09:04:52.694Z,98524.31
2022-11-18T09:07:21.505Z,98536.50
2022-11-18T09:09:48.240Z,98542.31
2022-11-18T09:12:15.260Z,98542.84
2022-11-18T09:17:29.665Z,98551.00
2022-11-18T09:19:56.137Z,98558.66
2022-11-18T09:22:22.589Z,98567.09
2022-11-18T09:24:49.128Z,98574.78
2022-11-18T09:27:17.597Z,98580.84
2022-11-18T09:29:45.198Z,98592.75
2022-11-18T09:32:11.846Z,98589.03
2022-11-18T09:34:38.453Z,98592.22
2022-11-18T09:37:06.863Z,98602.25
2022-11-18T09:39:39.750Z,98607.28
2022-11-18T09:42:48.160Z,98606.22
2022-11-18T09:45:33.730Z,98601.94
2022-11-18T09:48:16.916Z,98609.31
2022-11-18T09:50:51.725Z,98614.03
2022-11-18T09:53:21.367Z,98616.44
2022-11-18T09:55:49.874Z,98619.81
2022-11-18T09:58:33.960Z,98614.50
2022-11-18T10:01:01.238Z,98626.66
2022-11-18T10:03:30.805Z,98619.97
2022-11-18T10:06:23.096Z,98631.88
2022-11-18T10:09:12.166Z,98638.50
2022-11-18T10:11:50.535Z,98640.56
2022-11-18T10:14:18.591Z,98646.38
2022-11-18T10:16:48.057Z,98653.78
2022-11-18T10:19:58.751Z,98650.84
2022-11-18T10:22:33.911Z,98656.38
2022-11-18T10:25:01.194Z,98666.66
2022-11-18T10:27:38.734Z,98667.66
2022-11-18T10:30:13.331Z,98676.66
2022-11-18T10:32:56.054Z,98679.22
2022-11-18T10:35:40.499Z,98682.91
2022-11-18T10:38:12.873Z,98695.31
2022-11-18T10:40:57.716Z,98689.69
2022-11-18T10:43:49.877Z,98696.00
2022-11-18T10:46:18.088Z,98695.94
2022-11-18T10:48:44.808Z,98694.03
2022-11-18T10:51:24.882Z,98698.97
2022-11-18T10:53:51.379Z,98705.31
2022-11-18T10:56:17.908Z,98714.28
2022-11-18T10:58:50.246Z,98718.75
2022-11-18T11:01:26.190Z,98710.22
2022-11-18T11:04:00.339Z,98718.91
2022-11-18T11:06:26.770Z,98733.97
2022-11-18T11:08:59.999Z,98735.28
2022-11-18T11:11:32.719Z,98740.00
2022-11-18T11:14:12.229Z,98752.22
2022-11-18T11:16:59.811Z,98749.75
2022-11-18T11:20:04.353Z,98762.75
2022-11-18T11:22:30.931Z,98760.59
2022-11-18T11:24:57.809Z,98755.75
2022-11-18T11:30:43.685Z,98775.13
2022-11-18T11:33:37.696Z,98774.31
2022-11-18T11:36:20.892Z,98782.03
2022-11-18T11:39:04.796Z,98780.91
2022-11-18T11:41:53.866Z,98784.88
2022-11-18T11:44:38.645Z,98799.16
2022-11-18T11:47:41.127Z,98789.03
2022-11-18T11:50:26.876Z,98801.75
2022-11-18T11:53:38.448Z,98807.06
2022-11-18T11:56:21.140Z,98808.63
2022-11-18T11:58:51.783Z,98814.72
2022-11-18T12:01:55.321Z,98812.88
2022-11-18T12:04:33.198Z,98824.00
2022-11-18T12:07:00.439Z,98831.16
2022-11-18T12:09:32.960Z,98837.25
2022-11-18T12:11:59.505Z,98831.97
2022-11-18T12:14:53.171Z,98835.97
2022-11-18T12:17:29.007Z,98839.13
2022-11-18T12:19:55.593Z,98843.66
2022-11-18T12:22:23.101Z,98844.94
2022-11-18T12:24:49.549Z,98849.75
2022-11-18T12:27:27.247Z,98860.38
2022-11-18T12:29:56.960Z,98858.28
2022-11-18T12:32:45.411Z,98864.38
2022-11-18T12:35:11.844Z,98873.94
2022-11-18T12:37:40.008Z,98874.72
2022-11-18T12:40:09.569Z,98876.59
2022-11-18T12:43:05.770Z,98876.59
2022-11-18T12:45:41.285Z,98883.75
2022-11-18T12:48:31.329Z,98886.41
2022-11-18T12:51:00.751Z,98878.22
2022-11-18T12:53:42.450Z,98884.81
2022-11-18T12:56:11.915Z,98888.00
2022-11-18T12:58:44.080Z,98895.19
2022-11-18T13:01:13.222Z,98899.41
2022-11-18T13:03:40.073Z,98894.38
2022-11-18T13:06:19.544Z,98900.50
2022-11-18T13:08:52.931Z,98904.19
2022-11-18T13:11:38.856Z,98912.94
2022-11-18T13:14:24.911Z,98914.56
2022-11-18T13:17:10.362Z,98914.03
2022-11-18T13:19:36.971Z,98906.34
2022-11-18T13:22:22.758Z,98912.16
2022-11-18T13:24:51.566Z,98914.31
2022-11-18T13:27:30.925Z,98927.81
2022-11-18T13:30:11.698Z,98922.78
2022-11-18T13:32:44.167Z,98929.09
2022-11-18T13:35:17.794Z,98929.09
2022-11-18T13:38:02.485Z,98929.91
2022-11-18T13:40:38.016Z,98926.69
2022-11-18T13:43:04.525Z,98934.38
2022-11-18T13:45:32.631Z,98933.06
2022-11-18T13:48:06.340Z,98934.09
2022-11-18T13:50:39.936Z,98930.66
2022-11-18T13:53:33.733Z,98941.28
2022-11-18T13:56:18.422Z,98947.06
2022-11-18T13:59:18.118Z,98949.47
2022-11-18T14:01:54.784Z,98952.63
2022-11-18T14:04:28.588Z,98958.72
2022-11-18T14:07:35.064Z,98966.13
2022-11-18T14:10:05.706Z,98967.72
2022-11-18T14:12:34.582Z,98975.41
2022-11-18T14:15:39.117Z,98973.00
2022-11-18T14:18:20.635Z,98985.72
2022-11-18T14:20:52.919Z,98978.53
2022-11-18T14:23:26.162Z,98993.38
2022-11-18T14:25:53.320Z,98987.78
2022-11-18T14:28:37.211Z,99003.16
2022-11-18T14:31:07.563Z,98994.13
2022-11-18T14:33:36.243Z,99010.59
2022-11-18T14:36:14.557Z,99014.81
2022-11-18T14:41:49.370Z,99019.25
2022-11-18T14:44:17.701Z,99037.00
2022-11-18T14:46:53.465Z,99043.34
2022-11-18T14:49:23.678Z,99040.63
2022-11-18T14:51:51.986Z,99043.78
2022-11-18T14:54:26.466Z,99056.50
2022-11-18T14:57:05.641Z,99050.63
2022-11-18T14:59:32.374Z,99069.22
2022-11-18T15:01:59.565Z,99074.53
2022-11-18T15:04:26.298Z,99079.56
2022-11-18T15:06:53.211Z,99085.69
2022-11-18T15:09:19.920Z,99078.00
2022-11-18T15:11:46.469Z,99091.28
2022-11-18T15:14:12.961Z,99094.22
2022-11-18T15:16:39.501Z,99094.78
2022-11-18T15:19:10.132Z,99103.31
2022-11-18T15:21:36.634Z,99114.00
2022-11-18T15:24:03.474Z,99114.31
2022-11-18T15:26:37.276Z,99115.16
2022-11-18T15:29:04.553Z,99120.53
2022-11-18T15:31:31.062Z,99128.25
2022-11-18T15:34:02.089Z,99128.56
2022-11-18T15:36:31.708Z,99131.56
2022-11-18T15:38:58.294Z,99144.84
2022-11-18T15:41:27.268Z,99137.47
2022-11-18T15:43:55.945Z,99136.22
2022-11-18T15:46:24.948Z,99145.78
2022-11-18T15:48:54.011Z,99150.09
2022-11-18T15:51:21.083Z,99171.38
2022-11-18T15:53:47.670Z,99174.00
2022-11-18T15:56:17.205Z,99175.91
2022-11-18T15:58:43.779Z,99184.69
2022-11-18T16:01:10.466Z,99184.19
2022-11-18T16:03:37.304Z,99187.66
2022-11-18T16:06:04.161Z,99193.78
2022-11-18T16:08:30.716Z,99196.22
2022-11-18T16:11:16.334Z,99211.31
2022-11-18T16:13:43.052Z,99217.19
2022-11-18T16:16:28.175Z,99220.09
2022-11-18T16:18:56.332Z,99220.38
2022-11-18T16:21:23.913Z,99221.97
2022-11-18T16:23:50.452Z,99222.25
2022-11-18T16:26:17.319Z,99224.41
2022-11-18T16:28:44.158Z,99232.09
2022-11-18T16:31:29.486Z,99227.06
2022-11-18T16:33:55.961Z,99231.31
2022-11-18T16:36:28.818Z,99235.56
2022-11-18T16:38:55.503Z,99244.56
2022-11-18T16:41:34.154Z,99248.31
2022-11-18T16:44:03.656Z,99250.16
2022-11-18T16:46:32.213Z,99252.28
2022-11-18T16:48:59.557Z,99258.38
2022-11-18T16:51:28.381Z,99263.16
2022-11-18T16:53:57.317Z,99275.34
2022-11-18T16:56:26.916Z,99282.75
2022-11-18T16:59:10.986Z,99281.69
2022-11-18T17:01:37.500Z,99289.88
2022-11-18T17:04:04.472Z,99293.34
2022-11-18T17:06:31.933Z,99297.03
2022-11-18T17:08:59.204Z,99294.38
2022-11-18T17:11:26.330Z,99296.25
2022-11-18T17:13:57.680Z,99302.88
2022-11-18T17:16:25.925Z,99306.06
2022-11-18T17:19:00.673Z,99314.25
2022-11-18T17:21:29.112Z,99314.75
2022-11-18T17:23:56.747Z,99328.78
2022-11-18T17:26:26.225Z,99324.25
2022-11-18T17:28:54.616Z,99334.28
2022-11-18T17:31:23.020Z,99331.06
2022-11-18T17:33:52.283Z,99345.94
2022-11-18T17:36:21.080Z,99355.44
2022-11-18T17:38:50.069Z,99351.72
2022-11-18T17:41:38.319Z,99363.09
2022-11-18T17:44:07.069Z,99360.41
2022-11-18T17:46:37.958Z,99359.09
2022-11-18T17:49:07.338Z,99365.69
2022-11-18T17:51:33.917Z,99367.00
2022-11-18T17:54:00.405Z,99380.50
2022-11-18T17:56:27.065Z,99382.84
2022-11-18T17:58:53.751Z,99384.69
2022-11-18T18:01:21.787Z,99396.84
2022-11-18T18:03:48.916Z,99398.94
2022-11-18T18:06:16.296Z,99402.34
2022-11-18T18:08:43.097Z,99401.00
2022-11-18T18:11:14.154Z,99408.91
2022-11-18T18:14:00.179Z,99419.22
2022-11-18T18:16:27.863Z,99409.97
2022-11-18T18:18:54.650Z,99415.75
2022-11-18T18:21:21.128Z,99418.09
2022-11-18T18:23:48.065Z,99427.09
2022-11-18T18:26:15.064Z,99430.22
2022-11-18T18:28:41.546Z,99428.88
2022-11-18T18:31:10.685Z,99432.84
2022-11-18T18:33:39.875Z,99432.03
2022-11-18T18:36:09.120Z,99445.78
2022-11-18T18:38:37.903Z,99436.78
2022-11-18T18:41:10.285Z,99449.22
2022-11-18T18:43:36.949Z,99459.00
2022-11-18T18:46:25.912Z,99459.22
2022-11-18T18:48:52.736Z,99462.97
2022-11-18T18:51:19.211Z,99472.25
2022-11-18T18:53:45.705Z,99470.97
2022-11-18T18:56:13.369Z,99481.28
2022-11-18T18:58:39.937Z,99486.31
2022-11-18T19:01:14.544Z,99486.06
2022-11-18T19:03:42.816Z,99487.91
2022-11-18T19:09:13.103Z,99494.00
2022-11-18T19:11:58.291Z,99491.09
2022-11-18T19:14:25.607Z,99502.72
2022-11-18T19:16:52.669Z,99492.16
2022-11-18T19:19:43.809Z,99508.03
2022-11-18T19:22:13.526Z,99504.81
2022-11-18T19:24:50.293Z,99514.91
2022-11-18T19:27:18.335Z,99511.19
2022-11-18T19:29:45.149Z,99518.09
2022-11-18T19:32:11.656Z,99517.56
2022-11-18T19:34:38.269Z,99526.34
2022-11-18T19:37:04.773Z,99520.00
2022-11-18T19:39:31.398Z,99523.16
2022-11-18T19:41:58.130Z,99525.03
2022-11-18T19:44:24.823Z,99530.31
2022-11-18T19:46:51.339Z,99539.59
2022-11-18T19:49:18.210Z,99537.75
2022-11-18T19:51:44.971Z,99550.97
2022-11-18T19:54:11.451Z,99556.25
2022-11-18T19:56:38.016Z,99560.50
2022-11-18T19:59:04.561Z,99561.28
2022-11-18T20:01:31.496Z,99567.94
2022-11-18T20:04:03.051Z,99569.00
2022-11-18T20:06:30.188Z,99575.63
2022-11-18T20:08:57.564Z,99585.97
2022-11-18T20:11:24.515Z,99582.25
2022-11-18T20:13:51.642Z,99590.19
2022-11-18T20:16:24.166Z,99604.00
2022-11-18T20:18:56.192Z,99602.94
2022-11-18T20:21:24.299Z,99597.16
2022-11-18T20:23:54.279Z,99597.16
2022-11-18T20:26:22.741Z,99606.69
2022-11-18T20:28:55.903Z,99611.69
2022-11-18T20:31:25.080Z,99608.81
2022-11-18T20:33:53.505Z,99613.31
2022-11-18T20:36:21.822Z,99615.72
2022-11-18T20:38:53.736Z,99614.13
2022-11-18T20:41:21.723Z,99614.66
2022-11-18T20:43:49.483Z,99615.72
2022-11-18T20:46:20.698Z,99610.41
2022-11-18T20:48:49.055Z,99606.97
2022-11-18T20:51:25.738Z,99619.41
2022-11-18T20:53:54.475Z,99620.97
2022-11-18T20:56:22.989Z,99625.97
2022-11-18T20:58:50.132Z,99638.88
2022-11-18T21:01:18.824Z,99640.16
2022-11-18T21:03:52.746Z,99642.81
2022-11-18T21:06:20.568Z,99654.19
2022-11-18T21:08:47.066Z,99660.84
2022-11-18T21:11:14.665Z,99661.63
2022-11-18T21:14:00.256Z,99656.66
2022-11-18T21:16:27.644Z,99658.72
2022-11-18T21:18:54.539Z,99659.56
2022-11-18T21:21:39.814Z,99658.19
2022-11-18T21:24:06.822Z,99662.13
2022-11-18T21:26:35.032Z,99676.66
2022-11-18T21:29:03.193Z,99677.69
2022-11-18T21:31:30.329Z,99679.06
2022-11-18T21:33:57.248Z,99685.94
2022-11-18T21:36:25.819Z,99693.88
2022-11-18T21:38:52.951Z,99697.09
2022-11-18T21:41:20.212Z,99700.78
2022-11-18T21:46:38.820Z,99717.75
2022-11-18T21:49:06.345Z,99720.94
2022-11-18T21:51:34.172Z,99719.34
2022-11-18T21:54:01.200Z,99721.44
2022-11-18T21:56:31.005Z,99729.31
2022-11-18T21:58:59.729Z,99731.66
2022-11-18T22:01:28.827Z,99737.97
2022-11-18T22:03:58.152Z,99748.28
2022-11-18T22:06:25.996Z,99748.53
2022-11-18T22:08:53.041Z,99747.72
2022-11-18T22:11:22.494Z,99744.84
2022-11-18T22:13:50.828Z,99744.03
2022-11-18T22:16:19.450Z,99753.09
2022-11-18T22:18:51.570Z,99752.03
2022-11-18T22:21:22.076Z,99763.19
2022-11-18T22:23:48.713Z,99770.59
2022-11-18T22:26:20.451Z,99769.00
2022-11-18T22:28:47.864Z,99775.66
2022-11-18T22:31:20.177Z,99774.63
2022-11-18T22:33:47.759Z,99777.00
2022-11-18T22:36:16.284Z,99777.56
2022-11-18T22:38:43.911Z,99785.50
2022-11-18T22:41:33.407Z,99787.91
2022-11-18T22:44:06.764Z,99796.63
2022-11-18T22:46:34.736Z,99795.84
2022-11-18T22:49:01.248Z,99801.91
2022-11-18T22:51:30.908Z,99804.34
2022-11-18T22:54:22.737Z,99808.00
2022-11-18T22:56:43.921Z,99813.31
2022-11-18T22:59:11.869Z,99807.22
2022-11-18T23:01:38.445Z,99809.31
2022-11-18T23:04:05.201Z,99816.22
2022-11-18T23:06:31.765Z,99823.09
2022-11-18T23:08:58.299Z,99825.75
2022-11-18T23:11:48.234Z,99838.16
2022-11-18T23:14:14.717Z,99845.06
2022-11-18T23:16:42.639Z,99845.06
2022-11-18T23:19:14.524Z,99840.81
2022-11-18T23:21:41.796Z,99839.75
2022-11-18T23:24:17.582Z,99848.75
2022-11-18T23:26:45.198Z,99851.97
2022-11-18T23:29:12.873Z,99849.56
2022-11-18T23:31:44.560Z,99858.28
2022-11-18T23:34:12.588Z,99862.78
2022-11-18T23:36:39.349Z,99864.63
2022-11-18T23:39:06.175Z,99867.53
2022-11-18T23:41:32.744Z,99876.75
2022-11-18T23:43:59.256Z,99881.97
2022-11-18T23:46:27.569Z,99873.47
2022-11-18T23:48:54.397Z,99876.38
2022-11-18T23:51:23.213Z,99875.25
2022-11-18T23:53:55.344Z,99877.91
2022-11-18T23:56:24.238Z,99883.47
2022-11-18T23:58:53.299Z,99880.81
